createdAt,value
2023-01-28T00:16:27.263Z,93.07
2023-01-28T00:18:55.972Z,93.06
2023-01-28T00:21:23.805Z,92.85
2023-01-28T00:23:54.453Z,92.55
2023-01-28T00:26:23.224Z,92.38
2023-01-28T00:28:51.368Z,92.44
2023-01-28T00:31:24.712Z,92.23
2023-01-28T00:33:52.964Z,91.83
2023-01-28T00:36:23.682Z,91.64
2023-01-28T00:38:56.685Z,91.26
2023-01-28T00:41:25.741Z,90.51
2023-01-28T00:43:54.915Z,89.88
2023-01-28T00:46:23.937Z,89.43
2023-01-28T00:48:51.913Z,88.99
2023-01-28T00:51:20.766Z,88.83
2023-01-28T00:53:51.317Z,88.72
2023-01-28T00:56:19.704Z,88.28
2023-01-28T00:58:48.085Z,88.08
2023-01-28T01:01:20.982Z,88.18
2023-01-28T01:03:57.781Z,88.08
2023-01-28T01:06:25.856Z,88.20
2023-01-28T01:08:55.120Z,88.05
2023-01-28T01:11:22.998Z,88.04
2023-01-28T01:13:55.227Z,87.95
2023-01-28T01:16:30.014Z,87.69
2023-01-28T01:18:58.067Z,87.04
2023-01-28T01:21:27.486Z,86.72
2023-01-28T01:23:55.518Z,86.88
2023-01-28T01:26:23.567Z,87.02
2023-01-28T01:28:52.417Z,86.87
2023-01-28T01:31:21.212Z,86.49
2023-01-28T01:33:50.065Z,86.25
2023-01-28T01:36:20.024Z,86.19
2023-01-28T01:38:48.460Z,86.31
2023-01-28T01:41:24.519Z,86.46
2023-01-28T01:43:56.501Z,86.14
2023-01-28T01:46:35.711Z,86.27
2023-01-28T01:49:11.674Z,86.07
2023-01-28T01:51:39.810Z,85.87
2023-01-28T01:54:07.910Z,85.95
2023-01-28T01:56:39.361Z,85.77
2023-01-28T01:59:10.504Z,85.61
2023-01-28T02:01:38.361Z,85.64
2023-01-28T02:04:09.722Z,85.62
2023-01-28T02:06:37.839Z,85.51
2023-01-28T02:09:29.864Z,85.69
2023-01-28T02:12:10.277Z,85.65
2023-01-28T02:14:42.185Z,85.80
2023-01-28T02:17:10.267Z,85.94
2023-01-28T02:19:49.965Z,86.18
2023-01-28T02:22:36.486Z,86.17
2023-01-28T02:25:26.060Z,86.12
2023-01-28T02:28:15.839Z,85.69
2023-01-28T02:31:06.700Z,84.75
2023-01-28T02:33:50.057Z,84.37
2023-01-28T02:37:06.363Z,84.09
2023-01-28T02:39:41.458Z,83.76
2023-01-28T02:42:13.726Z,83.47
2023-01-28T02:44:41.808Z,83.72
2023-01-28T02:47:29.776Z,83.88
2023-01-28T02:49:59.654Z,83.71
2023-01-28T02:53:10.745Z,83.80
2023-01-28T02:55:47.203Z,83.68
2023-01-28T02:58:27.272Z,83.77
2023-01-28T03:01:23.157Z,83.72
2023-01-28T03:04:01.882Z,83.69
2023-01-28T03:06:38.839Z,83.67
2023-01-28T03:09:23.760Z,84.02
2023-01-28T03:12:23.819Z,84.01
2023-01-28T03:15:15.386Z,83.91
2023-01-28T03:18:04.912Z,84.06
2023-01-28T03:21:06.146Z,83.95
2023-01-28T03:24:24.421Z,83.73
2023-01-28T03:27:43.879Z,83.93
2023-01-28T03:30:41.037Z,83.91
2023-01-28T03:33:31.483Z,83.69
2023-01-28T03:36:18.650Z,83.90
2023-01-28T03:38:48.481Z,83.46
2023-01-28T03:41:23.609Z,83.31
2023-01-28T03:43:51.892Z,83.41
2023-01-28T03:46:19.819Z,83.39
2023-01-28T03:48:48.472Z,83.39
2023-01-28T08:05:51.708Z,89.83
2023-01-28T08:08:19.740Z,89.75
2023-01-28T08:10:47.746Z,89.68
2023-01-28T08:13:17.041Z,89.49
2023-01-28T08:15:45.146Z,89.66
2023-01-28T08:18:13.978Z,89.60
2023-01-28T08:20:43.636Z,89.64
2023-01-28T08:23:13.135Z,89.40
2023-01-28T08:25:41.008Z,88.98
2023-01-28T08:28:09.587Z,88.33
2023-01-28T08:30:38.843Z,88.14
2023-01-28T08:33:08.145Z,88.07
2023-01-28T08:35:37.024Z,87.86
2023-01-28T08:38:06.442Z,87.45
2023-01-28T08:40:35.138Z,87.27
2023-01-28T08:43:03.621Z,87.04
2023-01-28T08:45:32.252Z,86.76
2023-01-28T08:48:07.158Z,86.82
2023-01-28T08:50:36.630Z,86.22
2023-01-28T08:53:06.612Z,85.65
2023-01-28T08:55:34.718Z,85.61
2023-01-28T08:58:10.352Z,85.01
2023-01-28T09:00:39.129Z,84.18
2023-01-28T09:03:07.188Z,83.77
2023-01-28T09:05:38.118Z,83.57
2023-01-28T09:08:08.147Z,83.54
2023-01-28T09:10:37.621Z,83.46
2023-01-28T09:13:06.868Z,83.38
2023-01-28T09:15:35.023Z,83.11
2023-01-28T09:18:02.911Z,83.01
2023-01-28T09:20:32.384Z,82.94
2023-01-28T09:23:00.800Z,83.02
2023-01-28T09:25:28.923Z,83.01
2023-01-28T09:27:57.633Z,82.51
2023-01-28T09:30:26.072Z,82.59
2023-01-28T09:32:54.551Z,82.67
2023-01-28T09:35:22.881Z,82.66
2023-01-28T09:37:52.149Z,82.58
2023-01-28T09:40:24.418Z,82.55
2023-01-28T09:42:59.773Z,82.48
2023-01-28T09:45:38.782Z,82.25
2023-01-28T09:48:07.193Z,82.28
2023-01-28T09:50:37.031Z,82.01
2023-01-28T09:53:32.258Z,81.89
2023-01-28T09:56:05.536Z,81.37
2023-01-28T09:58:33.701Z,81.54
2023-01-28T10:01:23.693Z,81.66
2023-01-28T10:04:03.107Z,81.38
2023-01-28T10:06:53.012Z,80.97
2023-01-28T10:09:41.310Z,80.63
2023-01-28T10:12:37.407Z,80.31
2023-01-28T10:15:20.949Z,79.92
2023-01-28T10:17:50.694Z,79.52
2023-01-28T10:20:25.441Z,79.01
2023-01-28T10:23:19.567Z,78.02
2023-01-28T10:25:49.658Z,77.63
2023-01-28T10:28:28.275Z,77.64
2023-01-28T10:30:56.348Z,77.81
2023-01-28T10:33:27.426Z,78.13
2023-01-28T10:35:58.843Z,78.61
2023-01-28T10:38:27.200Z,78.43
2023-01-28T10:40:58.444Z,78.44
2023-01-28T10:43:26.911Z,78.91
2023-01-28T10:46:14.806Z,79.45
2023-01-28T10:48:43.866Z,79.71
2023-01-28T10:51:11.842Z,79.87
2023-01-28T10:53:48.861Z,79.79
2023-01-28T10:56:28.588Z,79.56
2023-01-28T10:59:16.062Z,79.54
2023-01-28T11:01:57.277Z,79.54
2023-01-28T11:04:27.360Z,79.58
2023-01-28T11:07:06.724Z,79.67
2023-01-28T11:09:37.207Z,79.35
2023-01-28T11:12:21.049Z,78.53
2023-01-28T11:15:05.146Z,77.51
2023-01-28T11:17:35.537Z,76.92
2023-01-28T11:20:12.049Z,77.13
2023-01-28T11:22:42.327Z,76.64
2023-01-28T11:25:27.915Z,76.17
2023-01-28T11:27:55.909Z,76.04
2023-01-28T11:30:32.616Z,75.84
2023-01-28T11:33:31.251Z,75.80
2023-01-28T11:36:12.146Z,76.06
2023-01-28T11:39:13.966Z,76.18
2023-01-28T11:41:41.870Z,75.88
2023-01-28T11:44:23.857Z,75.25
2023-01-28T11:47:13.781Z,74.44
2023-01-28T11:49:47.712Z,73.81
2023-01-28T11:52:55.227Z,73.89
2023-01-28T11:55:40.749Z,74.23
2023-01-28T11:58:25.449Z,73.70
2023-01-28T16:32:03.208Z,82.21
2023-01-28T16:34:32.135Z,82.02
2023-01-28T16:38:41.083Z,82.11
2023-01-28T16:41:24.612Z,81.75
2023-01-28T16:43:53.077Z,81.56
2023-01-28T16:46:21.301Z,81.32
2023-01-28T16:48:55.152Z,81.32
2023-01-28T16:51:23.130Z,80.99
2023-01-28T16:53:51.212Z,80.91
2023-01-28T16:56:45.576Z,80.65
2023-01-28T17:00:49.871Z,80.38
2023-01-28T17:03:17.742Z,80.09
2023-01-28T17:05:46.408Z,80.11
2023-01-28T17:08:14.639Z,79.93
2023-01-28T17:10:43.700Z,79.97
2023-01-28T17:13:11.728Z,79.92
2023-01-28T17:15:39.692Z,79.71
2023-01-28T17:18:09.964Z,79.66
2023-01-28T17:20:40.439Z,79.75
2023-01-28T17:23:09.268Z,79.54
2023-01-28T17:25:41.183Z,79.47
2023-01-28T17:28:09.359Z,79.35
2023-01-28T17:30:41.498Z,79.23
2023-01-28T17:33:09.801Z,79.22
2023-01-28T17:35:37.869Z,79.17
2023-01-28T17:38:06.152Z,79.13
2023-01-28T17:40:35.726Z,78.89
2023-01-28T17:43:03.777Z,79.05
2023-01-28T17:45:33.066Z,79.08
2023-01-28T17:48:01.086Z,79.21
2023-01-28T17:50:28.997Z,79.15
2023-01-28T17:52:58.012Z,79.17
2023-01-28T17:55:26.245Z,79.28
2023-01-28T17:57:56.367Z,79.14
2023-01-28T18:00:26.253Z,79.10
2023-01-28T18:02:54.433Z,78.93
2023-01-28T18:05:22.414Z,79.05
2023-01-28T18:07:52.529Z,78.94
2023-01-28T18:10:27.121Z,78.94
2023-01-28T18:12:56.753Z,78.95
2023-01-28T18:15:25.367Z,78.67
2023-01-28T18:17:53.203Z,78.91
2023-01-28T18:20:21.389Z,78.81
2023-01-28T18:22:50.490Z,78.73
2023-01-28T18:25:20.386Z,78.92
2023-01-28T18:27:48.542Z,78.76
2023-01-28T18:30:16.971Z,78.48
2023-01-28T18:32:44.812Z,78.32
2023-01-28T18:35:12.722Z,78.31
2023-01-28T18:37:40.640Z,78.33
2023-01-28T18:40:09.760Z,77.99
2023-01-28T18:42:37.915Z,78.03
2023-01-28T18:45:11.257Z,78.16
2023-01-28T18:47:39.128Z,78.39
2023-01-28T18:50:08.035Z,78.23
2023-01-28T18:52:38.287Z,78.18
2023-01-28T18:55:07.148Z,78.19
2023-01-28T18:57:35.064Z,78.03
2023-01-28T19:00:03.630Z,77.82
2023-01-28T19:02:32.134Z,77.79
2023-01-28T19:05:00.230Z,77.95
2023-01-28T19:07:30.353Z,78.04
2023-01-28T19:09:58.881Z,77.87
2023-01-28T19:12:26.711Z,77.75
2023-01-28T19:14:54.817Z,77.59
2023-01-28T19:17:23.560Z,77.58
2023-01-28T19:19:51.576Z,77.64
2023-01-28T19:22:19.644Z,77.65
2023-01-28T19:24:47.659Z,77.75
2023-01-28T19:27:15.787Z,77.82
2023-01-28T19:29:44.555Z,77.96
2023-01-28T19:32:12.566Z,78.10
2023-01-28T19:34:40.584Z,78.21
2023-01-28T19:37:09.216Z,78.28
2023-01-28T19:39:37.321Z,78.40
2023-01-28T19:42:05.643Z,78.51
2023-01-28T23:55:43.981Z,86.39
2023-01-28T23:58:11.965Z,86.28
